Terminal Aerodrome Forecast
Issued by NWS Wilmington, NC

Home | Current Version | Previous Version | Text Only | Print | Product List | Glossary On
Versions: 1 2 3 4 5 6 7 8 9 10 11 12 13 14 15
000
FTUS42 KILM 240730 AAA
TAFILM
TAF AMD
KILM 240730Z 2408/2506 22014G20KT P6SM FEW200
      TEMPO 2408/2412 BKN010
     FM242100 22011KT P6SM SHRA BKN040 PROB30 2421/2422 4SM TS
      OVC015CB
     FM242200 22010KT P6SM SHRA VCTS BKN040CB=

USA.gov is the U.S. government's official web portal to all federal, state and local government web resources and services.